sensor_id;sensor_type;location;lat;lon;timestamp;temperature;humidity
28725;DHT22;43472;48.980;9.646;2023-07-31T00:04:39;14.70;99.90
28725;DHT22;43472;48.980;9.646;2023-07-31T00:09:41;14.80;99.90
28725;DHT22;43472;48.980;9.646;2023-07-31T00:14:43;14.40;99.90
28725;DHT22;43472;48.980;9.646;2023-07-31T00:19:45;14.30;99.90
28725;DHT22;43472;48.980;9.646;2023-07-31T00:24:47;14.40;99.90
28725;DHT22;43472;48.980;9.646;2023-07-31T00:29:50;14.20;99.90
28725;DHT22;43472;48.980;9.646;2023-07-31T00:34:51;14.60;99.90
28725;DHT22;43472;48.980;9.646;2023-07-31T00:39:54;14.40;99.90
28725;DHT22;43472;48.980;9.646;2023-07-31T00:44:56;14.40;99.90
28725;DHT22;43472;48.980;9.646;2023-07-31T00:49:58;14.60;99.90
28725;DHT22;43472;48.980;9.646;2023-07-31T00:55:00;14.30;99.90
28725;DHT22;43472;48.980;9.646;2023-07-31T01:00:03;14.50;99.90
28725;DHT22;43472;48.980;9.646;2023-07-31T01:05:06;13.80;99.90
28725;DHT22;43472;48.980;9.646;2023-07-31T01:10:09;13.80;99.90
28725;DHT22;43472;48.980;9.646;2023-07-31T01:15:18;13.80;99.90
28725;DHT22;43472;48.980;9.646;2023-07-31T01:20:23;13.70;99.90
28725;DHT22;43472;48.980;9.646;2023-07-31T01:30:42;13.70;99.90
28725;DHT22;43472;48.980;9.646;2023-07-31T01:35:46;13.70;99.90
28725;DHT22;43472;48.980;9.646;2023-07-31T01:40:55;13.70;99.90
28725;DHT22;43472;48.980;9.646;2023-07-31T01:45:57;13.60;99.90
28725;DHT22;43472;48.980;9.646;2023-07-31T01:51:00;13.50;99.90
28725;DHT22;43472;48.980;9.646;2023-07-31T01:56:03;13.90;99.90
28725;DHT22;43472;48.980;9.646;2023-07-31T02:01:05;13.60;99.90
28725;DHT22;43472;48.980;9.646;2023-07-31T02:06:07;13.70;99.90
28725;DHT22;43472;48.980;9.646;2023-07-31T02:11:09;14.00;99.90
28725;DHT22;43472;48.980;9.646;2023-07-31T02:16:11;14.00;99.90
28725;DHT22;43472;48.980;9.646;2023-07-31T02:21:14;14.40;99.90
28725;DHT22;43472;48.980;9.646;2023-07-31T02:26:16;14.40;99.90
28725;DHT22;43472;48.980;9.646;2023-07-31T02:31:18;14.10;99.90
28725;DHT22;43472;48.980;9.646;2023-07-31T02:36:23;14.10;99.90
28725;DHT22;43472;48.980;9.646;2023-07-31T02:41:27;13.50;99.90
28725;DHT22;43472;48.980;9.646;2023-07-31T02:46:29;15.00;99.90
28725;DHT22;43472;48.980;9.646;2023-07-31T02:51:31;13.40;99.90
28725;DHT22;43472;48.980;9.646;2023-07-31T03:01:35;13.50;99.90
28725;DHT22;43472;48.980;9.646;2023-07-31T03:06:39;13.90;99.90
28725;DHT22;43472;48.980;9.646;2023-07-31T03:11:43;13.70;99.90
28725;DHT22;43472;48.980;9.646;2023-07-31T03:16:46;13.60;99.90
28725;DHT22;43472;48.980;9.646;2023-07-31T03:21:48;13.50;99.90
28725;DHT22;43472;48.980;9.646;2023-07-31T03:26:50;13.40;99.90
28725;DHT22;43472;48.980;9.646;2023-07-31T03:31:52;13.40;99.90
28725;DHT22;43472;48.980;9.646;2023-07-31T03:36:55;13.50;99.90
28725;DHT22;43472;48.980;9.646;2023-07-31T03:41:57;13.40;99.90
28725;DHT22;43472;48.980;9.646;2023-07-31T03:46:59;13.40;99.90
28725;DHT22;43472;48.980;9.646;2023-07-31T03:52:02;14.20;99.90
28725;DHT22;43472;48.980;9.646;2023-07-31T03:57:05;13.30;99.90
28725;DHT22;43472;48.980;9.646;2023-07-31T04:02:07;13.30;99.90
28725;DHT22;43472;48.980;9.646;2023-07-31T04:07:09;14.70;99.90
28725;DHT22;43472;48.980;9.646;2023-07-31T04:12:11;13.40;99.90
28725;DHT22;43472;48.980;9.646;2023-07-31T04:17:13;14.60;99.90
28725;DHT22;43472;48.980;9.646;2023-07-31T04:22:15;13.30;99.90
28725;DHT22;43472;48.980;9.646;2023-07-31T04:27:17;13.30;99.90
28725;DHT22;43472;48.980;9.646;2023-07-31T04:32:19;13.30;99.90
28725;DHT22;43472;48.980;9.646;2023-07-31T04:37:22;13.40;99.90
28725;DHT22;43472;48.980;9.646;2023-07-31T04:42:26;13.40;99.90
28725;DHT22;43472;48.980;9.646;2023-07-31T04:47:28;13.70;99.90
28725;DHT22;43472;48.980;9.646;2023-07-31T04:52:34;13.40;99.90
28725;DHT22;43472;48.980;9.646;2023-07-31T04:57:37;14.30;99.90
28725;DHT22;43472;48.980;9.646;2023-07-31T05:02:39;13.40;99.90
28725;DHT22;43472;48.980;9.646;2023-07-31T05:07:41;13.70;99.90
28725;DHT22;43472;48.980;9.646;2023-07-31T05:12:43;13.80;99.90
28725;DHT22;43472;48.980;9.646;2023-07-31T05:17:46;13.80;99.90
28725;DHT22;43472;48.980;9.646;2023-07-31T05:22:48;13.90;99.90
28725;DHT22;43472;48.980;9.646;2023-07-31T05:27:50;13.90;99.90
28725;DHT22;43472;48.980;9.646;2023-07-31T05:32:52;14.80;99.90
28725;DHT22;43472;48.980;9.646;2023-07-31T05:37:54;14.20;99.90
28725;DHT22;43472;48.980;9.646;2023-07-31T05:42:57;14.20;99.90
28725;DHT22;43472;48.980;9.646;2023-07-31T05:47:59;14.30;99.90
28725;DHT22;43472;48.980;9.646;2023-07-31T05:53:02;14.40;99.90
28725;DHT22;43472;48.980;9.646;2023-07-31T05:58:04;14.30;99.90
28725;DHT22;43472;48.980;9.646;2023-07-31T06:03:07;14.50;99.90
28725;DHT22;43472;48.980;9.646;2023-07-31T06:08:09;14.60;99.90
28725;DHT22;43472;48.980;9.646;2023-07-31T06:13:11;15.50;99.90
28725;DHT22;43472;48.980;9.646;2023-07-31T06:18:13;15.70;99.90
28725;DHT22;43472;48.980;9.646;2023-07-31T06:23:16;15.80;99.90
28725;DHT22;43472;48.980;9.646;2023-07-31T06:28:21;16.10;99.90
28725;DHT22;43472;48.980;9.646;2023-07-31T06:33:23;16.60;99.90
28725;DHT22;43472;48.980;9.646;2023-07-31T06:38:26;15.90;99.90
28725;DHT22;43472;48.980;9.646;2023-07-31T06:43:29;17.00;99.90
28725;DHT22;43472;48.980;9.646;2023-07-31T06:48:31;17.30;99.90
28725;DHT22;43472;48.980;9.646;2023-07-31T06:53:33;17.30;99.90
28725;DHT22;43472;48.980;9.646;2023-07-31T06:58:37;17.70;99.90
28725;DHT22;43472;48.980;9.646;2023-07-31T07:03:39;17.90;99.90
28725;DHT22;43472;48.980;9.646;2023-07-31T07:08:41;18.10;99.90
28725;DHT22;43472;48.980;9.646;2023-07-31T07:13:43;18.20;99.90
28725;DHT22;43472;48.980;9.646;2023-07-31T07:18:45;18.40;99.90
28725;DHT22;43472;48.980;9.646;2023-07-31T07:24:05;18.50;99.90
28725;DHT22;43472;48.980;9.646;2023-07-31T07:29:07;18.60;99.90
28725;DHT22;43472;48.980;9.646;2023-07-31T07:34:10;18.80;99.90
28725;DHT22;43472;48.980;9.646;2023-07-31T07:39:12;18.80;99.90
28725;DHT22;43472;48.980;9.646;2023-07-31T07:44:15;18.70;99.90
28725;DHT22;43472;48.980;9.646;2023-07-31T07:49:18;18.70;99.90
28725;DHT22;43472;48.980;9.646;2023-07-31T07:54:21;18.80;99.90
28725;DHT22;43472;48.980;9.646;2023-07-31T07:59:24;18.90;99.90
28725;DHT22;43472;48.980;9.646;2023-07-31T08:04:26;18.90;99.90
28725;DHT22;43472;48.980;9.646;2023-07-31T08:09:28;19.20;99.90
28725;DHT22;43472;48.980;9.646;2023-07-31T08:14:31;19.70;99.90
28725;DHT22;43472;48.980;9.646;2023-07-31T08:19:34;19.70;99.90
28725;DHT22;43472;48.980;9.646;2023-07-31T08:24:36;20.10;99.90
28725;DHT22;43472;48.980;9.646;2023-07-31T08:29:38;20.20;99.90
28725;DHT22;43472;48.980;9.646;2023-07-31T08:34:42;20.50;99.90
28725;DHT22;43472;48.980;9.646;2023-07-31T08:39:44;20.50;99.90
28725;DHT22;43472;48.980;9.646;2023-07-31T08:44:47;20.40;99.90
28725;DHT22;43472;48.980;9.646;2023-07-31T08:49:50;20.20;99.90
28725;DHT22;43472;48.980;9.646;2023-07-31T08:54:53;20.40;99.90
28725;DHT22;43472;48.980;9.646;2023-07-31T08:59:56;20.40;99.90
28725;DHT22;43472;48.980;9.646;2023-07-31T09:05:00;20.50;99.90
28725;DHT22;43472;48.980;9.646;2023-07-31T09:10:04;20.40;99.90
28725;DHT22;43472;48.980;9.646;2023-07-31T09:15:06;20.70;99.90
28725;DHT22;43472;48.980;9.646;2023-07-31T09:20:21;21.10;99.90
28725;DHT22;43472;48.980;9.646;2023-07-31T09:25:27;21.10;99.90
28725;DHT22;43472;48.980;9.646;2023-07-31T09:30:29;21.30;99.90
28725;DHT22;43472;48.980;9.646;2023-07-31T09:35:32;21.10;99.90
28725;DHT22;43472;48.980;9.646;2023-07-31T09:40:36;21.40;99.90
28725;DHT22;43472;48.980;9.646;2023-07-31T09:45:42;20.90;99.90
28725;DHT22;43472;48.980;9.646;2023-07-31T09:50:48;20.80;99.90
28725;DHT22;43472;48.980;9.646;2023-07-31T09:55:51;20.80;99.90
28725;DHT22;43472;48.980;9.646;2023-07-31T10:05:57;20.90;99.90
28725;DHT22;43472;48.980;9.646;2023-07-31T10:10:59;20.80;99.90
28725;DHT22;43472;48.980;9.646;2023-07-31T10:16:02;21.00;99.90
28725;DHT22;43472;48.980;9.646;2023-07-31T10:21:06;21.00;99.90
28725;DHT22;43472;48.980;9.646;2023-07-31T10:26:10;20.80;99.90
28725;DHT22;43472;48.980;9.646;2023-07-31T10:41:30;20.80;99.90
28725;DHT22;43472;48.980;9.646;2023-07-31T10:56:46;20.50;99.90
28725;DHT22;43472;48.980;9.646;2023-07-31T11:01:56;21.20;99.90
28725;DHT22;43472;48.980;9.646;2023-07-31T11:07:05;21.50;99.90
28725;DHT22;43472;48.980;9.646;2023-07-31T11:12:12;21.40;99.90
28725;DHT22;43472;48.980;9.646;2023-07-31T11:17:15;21.70;99.90
28725;DHT22;43472;48.980;9.646;2023-07-31T11:22:17;21.80;99.90
28725;DHT22;43472;48.980;9.646;2023-07-31T11:27:20;21.50;99.90
28725;DHT22;43472;48.980;9.646;2023-07-31T11:32:23;21.50;99.90
28725;DHT22;43472;48.980;9.646;2023-07-31T11:37:39;22.40;99.90
28725;DHT22;43472;48.980;9.646;2023-07-31T11:42:41;22.90;99.90
28725;DHT22;43472;48.980;9.646;2023-07-31T11:47:46;22.50;99.90
28725;DHT22;43472;48.980;9.646;2023-07-31T11:52:49;22.10;99.90
28725;DHT22;43472;48.980;9.646;2023-07-31T11:57:56;21.80;99.90
28725;DHT22;43472;48.980;9.646;2023-07-31T12:02:59;22.30;99.90
28725;DHT22;43472;48.980;9.646;2023-07-31T12:08:09;22.10;99.90
28725;DHT22;43472;48.980;9.646;2023-07-31T12:13:23;22.60;99.90
28725;DHT22;43472;48.980;9.646;2023-07-31T12:18:27;22.80;99.90
28725;DHT22;43472;48.980;9.646;2023-07-31T12:23:34;23.10;99.90
28725;DHT22;43472;48.980;9.646;2023-07-31T12:28:50;23.60;99.90
28725;DHT22;43472;48.980;9.646;2023-07-31T12:33:52;23.20;99.90
28725;DHT22;43472;48.980;9.646;2023-07-31T12:38:55;23.20;99.90
28725;DHT22;43472;48.980;9.646;2023-07-31T12:43:58;22.90;99.90
28725;DHT22;43472;48.980;9.646;2023-07-31T12:49:00;23.30;99.90
28725;DHT22;43472;48.980;9.646;2023-07-31T12:54:05;23.10;99.90
28725;DHT22;43472;48.980;9.646;2023-07-31T12:59:07;23.20;99.90
28725;DHT22;43472;48.980;9.646;2023-07-31T13:04:11;23.00;99.90
28725;DHT22;43472;48.980;9.646;2023-07-31T13:09:13;23.50;99.90
28725;DHT22;43472;48.980;9.646;2023-07-31T13:14:15;23.60;99.90
28725;DHT22;43472;48.980;9.646;2023-07-31T13:19:17;23.30;99.90
28725;DHT22;43472;48.980;9.646;2023-07-31T13:24:19;23.00;99.90
28725;DHT22;43472;48.980;9.646;2023-07-31T13:29:21;22.70;99.90
28725;DHT22;43472;48.980;9.646;2023-07-31T13:34:23;22.70;99.90
28725;DHT22;43472;48.980;9.646;2023-07-31T13:39:25;22.40;99.90
28725;DHT22;43472;48.980;9.646;2023-07-31T13:44:28;22.10;99.90
28725;DHT22;43472;48.980;9.646;2023-07-31T13:49:30;22.10;99.90
28725;DHT22;43472;48.980;9.646;2023-07-31T13:54:32;22.00;99.90
28725;DHT22;43472;48.980;9.646;2023-07-31T13:59:34;21.90;99.90
28725;DHT22;43472;48.980;9.646;2023-07-31T14:04:37;21.90;99.90
28725;DHT22;43472;48.980;9.646;2023-07-31T14:09:39;22.00;99.90
28725;DHT22;43472;48.980;9.646;2023-07-31T14:14:41;22.30;99.90
28725;DHT22;43472;48.980;9.646;2023-07-31T14:19:43;22.20;99.90
28725;DHT22;43472;48.980;9.646;2023-07-31T14:24:45;22.40;99.90
28725;DHT22;43472;48.980;9.646;2023-07-31T14:29:47;22.00;99.90
28725;DHT22;43472;48.980;9.646;2023-07-31T14:34:49;22.00;99.90
28725;DHT22;43472;48.980;9.646;2023-07-31T14:39:51;22.50;99.90
28725;DHT22;43472;48.980;9.646;2023-07-31T14:44:52;22.40;99.90
28725;DHT22;43472;48.980;9.646;2023-07-31T14:49:54;22.40;99.90
28725;DHT22;43472;48.980;9.646;2023-07-31T14:54:56;22.10;99.90
28725;DHT22;43472;48.980;9.646;2023-07-31T14:59:58;22.10;99.90
28725;DHT22;43472;48.980;9.646;2023-07-31T15:05:01;22.20;99.90
28725;DHT22;43472;48.980;9.646;2023-07-31T15:10:03;22.30;99.90
28725;DHT22;43472;48.980;9.646;2023-07-31T15:15:06;22.30;99.90
28725;DHT22;43472;48.980;9.646;2023-07-31T15:20:09;22.40;99.90
28725;DHT22;43472;48.980;9.646;2023-07-31T15:25:12;22.50;99.90
28725;DHT22;43472;48.980;9.646;2023-07-31T15:30:15;22.30;99.90
28725;DHT22;43472;48.980;9.646;2023-07-31T15:35:17;22.20;99.90
28725;DHT22;43472;48.980;9.646;2023-07-31T15:40:23;22.60;99.90
28725;DHT22;43472;48.980;9.646;2023-07-31T15:45:24;22.60;99.90
28725;DHT22;43472;48.980;9.646;2023-07-31T15:50:26;23.00;99.90
28725;DHT22;43472;48.980;9.646;2023-07-31T15:55:28;23.10;99.90
28725;DHT22;43472;48.980;9.646;2023-07-31T16:00:30;23.00;99.90
28725;DHT22;43472;48.980;9.646;2023-07-31T16:05:32;22.90;99.90
28725;DHT22;43472;48.980;9.646;2023-07-31T16:10:34;22.70;99.90
28725;DHT22;43472;48.980;9.646;2023-07-31T16:15:36;22.80;99.90
28725;DHT22;43472;48.980;9.646;2023-07-31T16:20:38;23.10;99.90
28725;DHT22;43472;48.980;9.646;2023-07-31T16:25:41;23.10;99.90
28725;DHT22;43472;48.980;9.646;2023-07-31T16:30:43;22.80;99.90
28725;DHT22;43472;48.980;9.646;2023-07-31T16:35:45;22.90;99.90
28725;DHT22;43472;48.980;9.646;2023-07-31T16:40:47;22.70;99.90
28725;DHT22;43472;48.980;9.646;2023-07-31T16:45:52;22.50;99.90
28725;DHT22;43472;48.980;9.646;2023-07-31T16:50:54;22.40;99.90
28725;DHT22;43472;48.980;9.646;2023-07-31T16:55:57;22.40;99.90
28725;DHT22;43472;48.980;9.646;2023-07-31T17:01:02;22.20;99.90
28725;DHT22;43472;48.980;9.646;2023-07-31T17:06:05;22.10;99.90
28725;DHT22;43472;48.980;9.646;2023-07-31T17:11:07;22.00;99.90
28725;DHT22;43472;48.980;9.646;2023-07-31T17:16:09;21.80;99.90
28725;DHT22;43472;48.980;9.646;2023-07-31T17:21:13;21.70;99.90
28725;DHT22;43472;48.980;9.646;2023-07-31T17:26:15;21.70;99.90
28725;DHT22;43472;48.980;9.646;2023-07-31T17:31:17;21.60;99.90
28725;DHT22;43472;48.980;9.646;2023-07-31T17:36:19;21.50;99.90
28725;DHT22;43472;48.980;9.646;2023-07-31T17:41:21;21.40;99.90
28725;DHT22;43472;48.980;9.646;2023-07-31T17:46:25;21.30;99.90
28725;DHT22;43472;48.980;9.646;2023-07-31T17:51:32;21.20;99.90
28725;DHT22;43472;48.980;9.646;2023-07-31T17:56:34;21.30;99.90
28725;DHT22;43472;48.980;9.646;2023-07-31T18:01:40;21.20;99.90
28725;DHT22;43472;48.980;9.646;2023-07-31T18:06:42;20.90;99.90
28725;DHT22;43472;48.980;9.646;2023-07-31T18:11:44;20.80;99.90
28725;DHT22;43472;48.980;9.646;2023-07-31T18:16:46;20.80;99.90
28725;DHT22;43472;48.980;9.646;2023-07-31T18:21:49;20.60;99.90
28725;DHT22;43472;48.980;9.646;2023-07-31T18:26:50;20.70;99.90
28725;DHT22;43472;48.980;9.646;2023-07-31T18:31:56;20.50;99.90
28725;DHT22;43472;48.980;9.646;2023-07-31T18:36:58;20.20;99.90
28725;DHT22;43472;48.980;9.646;2023-07-31T18:42:00;19.80;99.90
28725;DHT22;43472;48.980;9.646;2023-07-31T18:47:03;19.70;99.90
28725;DHT22;43472;48.980;9.646;2023-07-31T18:52:05;18.90;99.90
28725;DHT22;43472;48.980;9.646;2023-07-31T18:57:07;18.80;99.90
28725;DHT22;43472;48.980;9.646;2023-07-31T19:02:11;18.70;99.90
28725;DHT22;43472;48.980;9.646;2023-07-31T19:07:13;18.70;99.90
28725;DHT22;43472;48.980;9.646;2023-07-31T19:12:15;18.50;99.90
28725;DHT22;43472;48.980;9.646;2023-07-31T19:17:17;18.50;99.90
28725;DHT22;43472;48.980;9.646;2023-07-31T19:22:20;18.90;99.90
28725;DHT22;43472;48.980;9.646;2023-07-31T19:27:22;18.70;99.90
28725;DHT22;43472;48.980;9.646;2023-07-31T19:32:24;18.40;99.90
28725;DHT22;43472;48.980;9.646;2023-07-31T19:37:29;18.40;99.90
28725;DHT22;43472;48.980;9.646;2023-07-31T19:42:34;18.20;99.90
28725;DHT22;43472;48.980;9.646;2023-07-31T19:47:37;18.10;99.90
28725;DHT22;43472;48.980;9.646;2023-07-31T19:52:39;18.10;99.90
28725;DHT22;43472;48.980;9.646;2023-07-31T19:57:43;17.90;99.90
28725;DHT22;43472;48.980;9.646;2023-07-31T20:02:44;18.00;99.90
28725;DHT22;43472;48.980;9.646;2023-07-31T20:07:51;17.80;99.90
28725;DHT22;43472;48.980;9.646;2023-07-31T20:12:53;17.80;99.90
28725;DHT22;43472;48.980;9.646;2023-07-31T20:17:55;17.90;99.90
28725;DHT22;43472;48.980;9.646;2023-07-31T20:22:58;17.70;99.90
28725;DHT22;43472;48.980;9.646;2023-07-31T20:28:03;17.60;99.90
28725;DHT22;43472;48.980;9.646;2023-07-31T20:33:05;17.70;99.90
28725;DHT22;43472;48.980;9.646;2023-07-31T20:38:07;17.70;99.90
28725;DHT22;43472;48.980;9.646;2023-07-31T20:43:09;17.70;99.90
28725;DHT22;43472;48.980;9.646;2023-07-31T20:48:17;17.70;99.90
28725;DHT22;43472;48.980;9.646;2023-07-31T20:53:20;17.50;99.90
28725;DHT22;43472;48.980;9.646;2023-07-31T20:58:22;17.50;99.90
28725;DHT22;43472;48.980;9.646;2023-07-31T21:03:26;17.60;99.90
28725;DHT22;43472;48.980;9.646;2023-07-31T21:08:29;17.40;99.90
28725;DHT22;43472;48.980;9.646;2023-07-31T21:13:31;17.40;99.90
28725;DHT22;43472;48.980;9.646;2023-07-31T21:18:33;17.40;99.90
28725;DHT22;43472;48.980;9.646;2023-07-31T21:28:39;17.20;99.90
28725;DHT22;43472;48.980;9.646;2023-07-31T21:33:42;17.20;99.90
28725;DHT22;43472;48.980;9.646;2023-07-31T21:38:45;17.20;99.90
28725;DHT22;43472;48.980;9.646;2023-07-31T21:43:46;17.10;99.90
28725;DHT22;43472;48.980;9.646;2023-07-31T21:48:48;17.10;99.90
28725;DHT22;43472;48.980;9.646;2023-07-31T21:53:50;17.10;99.90
28725;DHT22;43472;48.980;9.646;2023-07-31T21:58:54;17.20;99.90
28725;DHT22;43472;48.980;9.646;2023-07-31T22:03:56;17.10;99.90
28725;DHT22;43472;48.980;9.646;2023-07-31T22:08:58;17.10;99.90
28725;DHT22;43472;48.980;9.646;2023-07-31T22:14:00;17.00;99.90
28725;DHT22;43472;48.980;9.646;2023-07-31T22:19:01;17.10;99.90
28725;DHT22;43472;48.980;9.646;2023-07-31T22:24:03;17.20;99.90
28725;DHT22;43472;48.980;9.646;2023-07-31T22:34:09;17.00;99.90
28725;DHT22;43472;48.980;9.646;2023-07-31T22:39:11;17.00;99.90
28725;DHT22;43472;48.980;9.646;2023-07-31T22:44:13;17.00;99.90
28725;DHT22;43472;48.980;9.646;2023-07-31T22:49:15;17.00;99.90
28725;DHT22;43472;48.980;9.646;2023-07-31T22:54:17;17.00;99.90
28725;DHT22;43472;48.980;9.646;2023-07-31T22:59:20;17.10;99.90
28725;DHT22;43472;48.980;9.646;2023-07-31T23:04:22;17.00;99.90
28725;DHT22;43472;48.980;9.646;2023-07-31T23:09:24;16.90;99.90
28725;DHT22;43472;48.980;9.646;2023-07-31T23:14:25;17.00;99.90
28725;DHT22;43472;48.980;9.646;2023-07-31T23:19:28;17.10;99.90
28725;DHT22;43472;48.980;9.646;2023-07-31T23:24:29;17.10;99.90
28725;DHT22;43472;48.980;9.646;2023-07-31T23:29:31;17.20;99.90
28725;DHT22;43472;48.980;9.646;2023-07-31T23:34:33;17.20;99.90
28725;DHT22;43472;48.980;9.646;2023-07-31T23:39:35;17.40;99.90
28725;DHT22;43472;48.980;9.646;2023-07-31T23:44:37;17.30;99.90
28725;DHT22;43472;48.980;9.646;2023-07-31T23:49:39;17.50;99.90
28725;DHT22;43472;48.980;9.646;2023-07-31T23:54:41;17.50;99.90
28725;DHT22;43472;48.980;9.646;2023-07-31T23:59:43;17.40;99.90
